Ponca City Regional Airport
KPNC : now visible

Airfield :











YOU CAN JOIN US ON...

 
LOGIN :

Register | Disclaimer

   EN    FR    IT 

 









Legend :    VFR   Marginal VFR   IFR   Intensive IFR   Very Intensive IFR
Visi :
Ceiling :
>= 8 km
>= 3000ft
5 to 8 km
1000 to 3000 ft
1500m to 5 km
500 to 1000 ft
800 to 1500m
200 to 500 ft
< 800m
< 200 ft
Symbols :   Thunderstorms  Fog  Heavy snow  Heavy precipitations  Wind > 20 kt







- Airport Elevation : 1008 ft


KPNC - Ponca City Regional

CURRENT METAR :
  • 200853Z AUTO 10SM CLR 23/19 A2992 RMK AO2 SLP119 T02280194 58009

EXPIRED METARs :
  • 200753Z AUTO 13007KT 10SM CLR 23/19 A2995 RMK AO2 SLP127 T02330194
  • 200653Z AUTO 14008KT 10SM CLR 24/19 A2996 RMK AO2 SLP130 T02440194

TAF KPNC
Valid from the 20 at 06:00 until the 21 at 06:00 UTC


200522Z 2006/2106 14009KT P6SM SCT050 BKN200
FM201100 13006KT P6SM BKN020
FM201200 13005KT P6SM OVC008
FM201800 15009KT P6SM OVC015
No reported NOTAMs for that airfield.



MET'MAP, your aeronautical weather chart ! - Copyright ORBIFLY December 2007 - Disclaimer

ORBIFLY MET'MAP TEAM :

Programming & Development : Alexandra Zaïnal
Concept & Development : Baudouin d'Aumeries
Co-Development & Prog : Marc-Olivier Méhu
Technical & hardware support : Manuel Goepfert

Contact : metmap@orbifly.com




SOURCES & CREDITS :

   NOAA       Earth
Advisory